sensor_id;sensor_type;location;lat;lon;timestamp;temperature;humidity
52869;DHT22;39100;53.480;6.158;2022-07-29T00:02:04;15.70;99.90
52869;DHT22;39100;53.480;6.158;2022-07-29T00:04:29;15.70;99.90
52869;DHT22;39100;53.480;6.158;2022-07-29T00:06:55;15.70;99.90
52869;DHT22;39100;53.480;6.158;2022-07-29T00:09:20;15.70;99.90
52869;DHT22;39100;53.480;6.158;2022-07-29T00:11:46;15.70;99.90
52869;DHT22;39100;53.480;6.158;2022-07-29T00:14:12;15.70;99.90
52869;DHT22;39100;53.480;6.158;2022-07-29T00:16:37;15.70;99.90
52869;DHT22;39100;53.480;6.158;2022-07-29T00:19:04;15.70;99.90
52869;DHT22;39100;53.480;6.158;2022-07-29T00:21:29;15.70;99.90
52869;DHT22;39100;53.480;6.158;2022-07-29T00:23:55;15.70;99.90
52869;DHT22;39100;53.480;6.158;2022-07-29T00:26:21;15.70;99.90
52869;DHT22;39100;53.480;6.158;2022-07-29T00:28:46;15.70;99.90
52869;DHT22;39100;53.480;6.158;2022-07-29T00:31:12;15.70;99.90
52869;DHT22;39100;53.480;6.158;2022-07-29T00:33:38;15.70;99.90
52869;DHT22;39100;53.480;6.158;2022-07-29T00:36:03;15.70;99.90
52869;DHT22;39100;53.480;6.158;2022-07-29T00:38:29;15.70;99.90
52869;DHT22;39100;53.480;6.158;2022-07-29T00:40:55;15.80;99.90
52869;DHT22;39100;53.480;6.158;2022-07-29T00:43:20;15.80;99.90
52869;DHT22;39100;53.480;6.158;2022-07-29T00:45:46;15.90;99.90
52869;DHT22;39100;53.480;6.158;2022-07-29T00:48:11;15.80;99.90
52869;DHT22;39100;53.480;6.158;2022-07-29T00:50:37;15.80;99.90
52869;DHT22;39100;53.480;6.158;2022-07-29T00:53:04;15.90;99.90
52869;DHT22;39100;53.480;6.158;2022-07-29T00:55:31;15.90;99.90
52869;DHT22;39100;53.480;6.158;2022-07-29T00:57:58;15.90;99.90
52869;DHT22;39100;53.480;6.158;2022-07-29T01:00:25;15.90;99.90
52869;DHT22;39100;53.480;6.158;2022-07-29T01:02:51;15.90;99.90
52869;DHT22;39100;53.480;6.158;2022-07-29T01:05:19;15.90;99.90
52869;DHT22;39100;53.480;6.158;2022-07-29T01:07:46;15.90;99.90
52869;DHT22;39100;53.480;6.158;2022-07-29T01:10:14;16.00;99.90
52869;DHT22;39100;53.480;6.158;2022-07-29T01:12:42;16.00;99.90
52869;DHT22;39100;53.480;6.158;2022-07-29T01:15:09;16.00;99.90
52869;DHT22;39100;53.480;6.158;2022-07-29T01:18:00;16.00;99.90
52869;DHT22;39100;53.480;6.158;2022-07-29T01:25:54;16.00;99.90
52869;DHT22;39100;53.480;6.158;2022-07-29T01:28:47;16.00;99.90
52869;DHT22;39100;53.480;6.158;2022-07-29T01:31:28;16.60;99.90
52869;DHT22;39100;53.480;6.158;2022-07-29T01:33:58;16.10;99.90
52869;DHT22;39100;53.480;6.158;2022-07-29T01:36:34;16.10;99.90
52869;DHT22;39100;53.480;6.158;2022-07-29T01:39:25;16.10;99.90
52869;DHT22;39100;53.480;6.158;2022-07-29T01:42:20;16.10;99.90
52869;DHT22;39100;53.480;6.158;2022-07-29T01:45:02;16.10;99.90
52869;DHT22;39100;53.480;6.158;2022-07-29T01:50:21;16.10;99.90
52869;DHT22;39100;53.480;6.158;2022-07-29T01:52:58;16.10;99.90
52869;DHT22;39100;53.480;6.158;2022-07-29T01:55:31;16.20;99.90
52869;DHT22;39100;53.480;6.158;2022-07-29T01:57:58;16.20;99.90
52869;DHT22;39100;53.480;6.158;2022-07-29T02:00:25;16.20;99.90
52869;DHT22;39100;53.480;6.158;2022-07-29T02:02:53;16.20;99.90
52869;DHT22;39100;53.480;6.158;2022-07-29T02:05:21;16.20;99.90
52869;DHT22;39100;53.480;6.158;2022-07-29T02:07:49;16.20;99.90
52869;DHT22;39100;53.480;6.158;2022-07-29T02:10:19;16.20;99.90
52869;DHT22;39100;53.480;6.158;2022-07-29T02:12:48;16.20;99.90
52869;DHT22;39100;53.480;6.158;2022-07-29T02:15:14;16.20;99.90
52869;DHT22;39100;53.480;6.158;2022-07-29T02:17:55;16.20;99.90
52869;DHT22;39100;53.480;6.158;2022-07-29T02:20:22;16.20;99.90
52869;DHT22;39100;53.480;6.158;2022-07-29T02:22:52;16.30;99.90
52869;DHT22;39100;53.480;6.158;2022-07-29T02:25:19;16.30;99.90
52869;DHT22;39100;53.480;6.158;2022-07-29T02:27:47;16.30;99.90
52869;DHT22;39100;53.480;6.158;2022-07-29T02:30:14;16.30;99.90
52869;DHT22;39100;53.480;6.158;2022-07-29T02:32:41;16.30;99.90
52869;DHT22;39100;53.480;6.158;2022-07-29T02:35:09;16.30;99.90
52869;DHT22;39100;53.480;6.158;2022-07-29T02:37:36;16.30;99.90
52869;DHT22;39100;53.480;6.158;2022-07-29T02:40:03;16.30;99.90
52869;DHT22;39100;53.480;6.158;2022-07-29T02:42:29;16.30;99.90
52869;DHT22;39100;53.480;6.158;2022-07-29T02:44:56;16.30;99.90
52869;DHT22;39100;53.480;6.158;2022-07-29T02:47:27;17.10;99.90
52869;DHT22;39100;53.480;6.158;2022-07-29T02:50:11;16.30;99.90
52869;DHT22;39100;53.480;6.158;2022-07-29T02:52:39;16.30;99.90
52869;DHT22;39100;53.480;6.158;2022-07-29T02:57:41;16.30;99.90
52869;DHT22;39100;53.480;6.158;2022-07-29T03:00:10;16.30;99.90
52869;DHT22;39100;53.480;6.158;2022-07-29T03:02:40;16.30;99.90
52869;DHT22;39100;53.480;6.158;2022-07-29T03:05:08;16.30;99.90
52869;DHT22;39100;53.480;6.158;2022-07-29T03:07:36;16.30;99.90
52869;DHT22;39100;53.480;6.158;2022-07-29T03:10:03;16.30;99.90
52869;DHT22;39100;53.480;6.158;2022-07-29T03:12:30;16.30;99.90
52869;DHT22;39100;53.480;6.158;2022-07-29T03:14:56;16.30;99.90
52869;DHT22;39100;53.480;6.158;2022-07-29T03:17:23;16.30;99.90
52869;DHT22;39100;53.480;6.158;2022-07-29T03:19:50;16.30;99.90
52869;DHT22;39100;53.480;6.158;2022-07-29T03:22:15;16.30;99.90
52869;DHT22;39100;53.480;6.158;2022-07-29T03:24:41;16.30;99.90
52869;DHT22;39100;53.480;6.158;2022-07-29T03:27:06;16.30;99.90
52869;DHT22;39100;53.480;6.158;2022-07-29T03:29:32;16.30;99.90
52869;DHT22;39100;53.480;6.158;2022-07-29T03:31:58;16.20;99.90
52869;DHT22;39100;53.480;6.158;2022-07-29T03:34:23;16.30;99.90
52869;DHT22;39100;53.480;6.158;2022-07-29T03:36:50;16.30;99.90
52869;DHT22;39100;53.480;6.158;2022-07-29T03:39:18;16.20;99.90
52869;DHT22;39100;53.480;6.158;2022-07-29T03:41:48;16.20;99.90
52869;DHT22;39100;53.480;6.158;2022-07-29T03:44:16;16.20;99.90
52869;DHT22;39100;53.480;6.158;2022-07-29T03:46:44;16.30;99.90
52869;DHT22;39100;53.480;6.158;2022-07-29T03:49:11;16.30;99.90
52869;DHT22;39100;53.480;6.158;2022-07-29T03:51:37;16.20;99.90
52869;DHT22;39100;53.480;6.158;2022-07-29T03:54:03;16.20;99.90
52869;DHT22;39100;53.480;6.158;2022-07-29T03:56:31;16.20;99.90
52869;DHT22;39100;53.480;6.158;2022-07-29T03:58:58;16.20;99.90
52869;DHT22;39100;53.480;6.158;2022-07-29T04:01:25;16.20;99.90
52869;DHT22;39100;53.480;6.158;2022-07-29T04:03:51;16.20;99.90
52869;DHT22;39100;53.480;6.158;2022-07-29T04:06:17;16.10;99.90
52869;DHT22;39100;53.480;6.158;2022-07-29T04:08:43;16.20;99.90
52869;DHT22;39100;53.480;6.158;2022-07-29T04:11:08;16.10;99.90
52869;DHT22;39100;53.480;6.158;2022-07-29T04:13:34;16.20;99.90
52869;DHT22;39100;53.480;6.158;2022-07-29T04:16:00;16.20;99.90
52869;DHT22;39100;53.480;6.158;2022-07-29T04:18:25;16.10;99.90
52869;DHT22;39100;53.480;6.158;2022-07-29T04:20:51;16.20;99.90
52869;DHT22;39100;53.480;6.158;2022-07-29T04:23:17;16.20;99.90
52869;DHT22;39100;53.480;6.158;2022-07-29T04:25:42;16.20;99.90
52869;DHT22;39100;53.480;6.158;2022-07-29T04:28:09;16.20;99.90
52869;DHT22;39100;53.480;6.158;2022-07-29T04:30:36;16.20;99.90
52869;DHT22;39100;53.480;6.158;2022-07-29T04:33:03;16.20;99.90
52869;DHT22;39100;53.480;6.158;2022-07-29T04:35:30;16.20;99.90
52869;DHT22;39100;53.480;6.158;2022-07-29T04:37:56;16.20;99.90
52869;DHT22;39100;53.480;6.158;2022-07-29T04:40:21;16.20;99.90
52869;DHT22;39100;53.480;6.158;2022-07-29T04:42:47;16.30;99.90
52869;DHT22;39100;53.480;6.158;2022-07-29T04:45:13;16.30;99.90
52869;DHT22;39100;53.480;6.158;2022-07-29T04:47:38;16.30;99.90
52869;DHT22;39100;53.480;6.158;2022-07-29T04:50:04;16.20;99.90
52869;DHT22;39100;53.480;6.158;2022-07-29T04:52:32;16.30;99.90
52869;DHT22;39100;53.480;6.158;2022-07-29T04:54:58;16.20;99.90
52869;DHT22;39100;53.480;6.158;2022-07-29T04:57:23;16.30;99.90
52869;DHT22;39100;53.480;6.158;2022-07-29T04:59:49;16.30;99.90
52869;DHT22;39100;53.480;6.158;2022-07-29T05:02:14;16.30;99.90
52869;DHT22;39100;53.480;6.158;2022-07-29T05:04:40;16.30;99.90
52869;DHT22;39100;53.480;6.158;2022-07-29T05:07:06;16.30;99.90
52869;DHT22;39100;53.480;6.158;2022-07-29T05:09:31;16.30;99.90
52869;DHT22;39100;53.480;6.158;2022-07-29T05:11:57;16.40;99.90
52869;DHT22;39100;53.480;6.158;2022-07-29T05:14:23;16.40;99.90
52869;DHT22;39100;53.480;6.158;2022-07-29T05:16:49;16.40;99.90
52869;DHT22;39100;53.480;6.158;2022-07-29T05:19:16;16.40;99.90
52869;DHT22;39100;53.480;6.158;2022-07-29T05:21:42;16.40;99.90
52869;DHT22;39100;53.480;6.158;2022-07-29T05:24:09;16.50;99.90
52869;DHT22;39100;53.480;6.158;2022-07-29T05:26:35;16.60;99.90
52869;DHT22;39100;53.480;6.158;2022-07-29T05:29:00;16.50;99.90
52869;DHT22;39100;53.480;6.158;2022-07-29T05:31:26;16.60;99.90
52869;DHT22;39100;53.480;6.158;2022-07-29T05:33:51;16.60;99.90
52869;DHT22;39100;53.480;6.158;2022-07-29T05:36:17;16.70;99.90
52869;DHT22;39100;53.480;6.158;2022-07-29T05:38:43;16.80;99.90
52869;DHT22;39100;53.480;6.158;2022-07-29T05:41:09;16.80;99.90
52869;DHT22;39100;53.480;6.158;2022-07-29T05:43:34;16.90;99.90
52869;DHT22;39100;53.480;6.158;2022-07-29T05:46:00;16.90;99.90
52869;DHT22;39100;53.480;6.158;2022-07-29T05:48:25;17.00;99.90
52869;DHT22;39100;53.480;6.158;2022-07-29T05:50:51;17.10;99.90
52869;DHT22;39100;53.480;6.158;2022-07-29T05:53:17;17.10;99.90
52869;DHT22;39100;53.480;6.158;2022-07-29T05:55:42;17.20;99.90
52869;DHT22;39100;53.480;6.158;2022-07-29T05:58:08;17.30;99.90
52869;DHT22;39100;53.480;6.158;2022-07-29T06:00:33;17.30;99.90
52869;DHT22;39100;53.480;6.158;2022-07-29T06:02:59;17.40;99.90
52869;DHT22;39100;53.480;6.158;2022-07-29T06:05:25;17.40;99.90
52869;DHT22;39100;53.480;6.158;2022-07-29T06:07:51;17.50;99.90
52869;DHT22;39100;53.480;6.158;2022-07-29T06:10:16;17.60;99.90
52869;DHT22;39100;53.480;6.158;2022-07-29T06:12:42;17.60;99.90
52869;DHT22;39100;53.480;6.158;2022-07-29T06:15:08;17.70;99.90
52869;DHT22;39100;53.480;6.158;2022-07-29T06:17:34;17.90;99.90
52869;DHT22;39100;53.480;6.158;2022-07-29T06:20:00;18.00;99.90
52869;DHT22;39100;53.480;6.158;2022-07-29T06:22:25;18.30;99.90
52869;DHT22;39100;53.480;6.158;2022-07-29T06:24:51;18.50;99.90
52869;DHT22;39100;53.480;6.158;2022-07-29T06:27:16;18.60;99.90
52869;DHT22;39100;53.480;6.158;2022-07-29T06:29:42;18.70;99.90
52869;DHT22;39100;53.480;6.158;2022-07-29T06:32:07;18.80;99.90
52869;DHT22;39100;53.480;6.158;2022-07-29T06:34:35;18.80;99.90
52869;DHT22;39100;53.480;6.158;2022-07-29T06:37:00;18.90;99.90
52869;DHT22;39100;53.480;6.158;2022-07-29T06:39:30;19.00;99.90
52869;DHT22;39100;53.480;6.158;2022-07-29T06:41:56;19.00;99.90
52869;DHT22;39100;53.480;6.158;2022-07-29T06:44:21;19.10;99.90
52869;DHT22;39100;53.480;6.158;2022-07-29T06:46:47;19.10;99.90
52869;DHT22;39100;53.480;6.158;2022-07-29T06:49:15;19.20;99.90
52869;DHT22;39100;53.480;6.158;2022-07-29T06:51:40;19.30;99.90
52869;DHT22;39100;53.480;6.158;2022-07-29T06:54:06;19.40;99.90
52869;DHT22;39100;53.480;6.158;2022-07-29T06:56:33;19.70;99.90
52869;DHT22;39100;53.480;6.158;2022-07-29T06:59:02;19.40;99.90
52869;DHT22;39100;53.480;6.158;2022-07-29T07:01:28;19.40;99.90
52869;DHT22;39100;53.480;6.158;2022-07-29T07:03:53;19.40;99.90
52869;DHT22;39100;53.480;6.158;2022-07-29T07:06:19;19.50;99.90
52869;DHT22;39100;53.480;6.158;2022-07-29T07:08:44;19.40;99.90
52869;DHT22;39100;53.480;6.158;2022-07-29T07:11:10;19.50;99.90
52869;DHT22;39100;53.480;6.158;2022-07-29T07:13:36;19.50;99.90
52869;DHT22;39100;53.480;6.158;2022-07-29T07:16:02;19.50;99.90
52869;DHT22;39100;53.480;6.158;2022-07-29T07:18:28;19.50;99.90
52869;DHT22;39100;53.480;6.158;2022-07-29T07:20:53;19.40;99.90
52869;DHT22;39100;53.480;6.158;2022-07-29T07:23:19;19.40;99.90
52869;DHT22;39100;53.480;6.158;2022-07-29T07:25:44;19.40;99.90
52869;DHT22;39100;53.480;6.158;2022-07-29T07:28:10;19.40;99.90
52869;DHT22;39100;53.480;6.158;2022-07-29T07:30:36;19.30;99.90
52869;DHT22;39100;53.480;6.158;2022-07-29T07:33:02;19.30;99.90
52869;DHT22;39100;53.480;6.158;2022-07-29T07:35:28;19.30;99.90
52869;DHT22;39100;53.480;6.158;2022-07-29T07:37:55;19.30;99.90
52869;DHT22;39100;53.480;6.158;2022-07-29T07:40:21;19.40;99.90
52869;DHT22;39100;53.480;6.158;2022-07-29T07:42:46;19.40;99.90
52869;DHT22;39100;53.480;6.158;2022-07-29T07:45:12;19.50;99.90
52869;DHT22;39100;53.480;6.158;2022-07-29T07:47:39;19.60;99.90
52869;DHT22;39100;53.480;6.158;2022-07-29T07:50:06;19.70;99.90
52869;DHT22;39100;53.480;6.158;2022-07-29T07:52:32;19.90;99.90
52869;DHT22;39100;53.480;6.158;2022-07-29T07:54:58;20.10;99.90
52869;DHT22;39100;53.480;6.158;2022-07-29T07:57:23;20.20;99.90
52869;DHT22;39100;53.480;6.158;2022-07-29T07:59:49;20.30;99.90
52869;DHT22;39100;53.480;6.158;2022-07-29T08:02:14;20.30;99.90
52869;DHT22;39100;53.480;6.158;2022-07-29T08:04:40;20.40;99.90
52869;DHT22;39100;53.480;6.158;2022-07-29T08:07:06;20.60;99.90
52869;DHT22;39100;53.480;6.158;2022-07-29T08:09:33;20.50;99.90
52869;DHT22;39100;53.480;6.158;2022-07-29T08:11:59;20.40;99.90
52869;DHT22;39100;53.480;6.158;2022-07-29T08:14:27;20.40;99.90
52869;DHT22;39100;53.480;6.158;2022-07-29T08:16:53;20.50;99.90
52869;DHT22;39100;53.480;6.158;2022-07-29T08:19:19;20.50;99.90
52869;DHT22;39100;53.480;6.158;2022-07-29T08:21:45;20.60;99.90
52869;DHT22;39100;53.480;6.158;2022-07-29T08:24:10;20.60;99.90
52869;DHT22;39100;53.480;6.158;2022-07-29T08:26:54;20.70;99.90
52869;DHT22;39100;53.480;6.158;2022-07-29T08:29:20;20.80;99.90
52869;DHT22;39100;53.480;6.158;2022-07-29T08:31:45;21.10;99.90
52869;DHT22;39100;53.480;6.158;2022-07-29T08:34:11;21.20;99.90
52869;DHT22;39100;53.480;6.158;2022-07-29T08:36:37;21.30;99.90
52869;DHT22;39100;53.480;6.158;2022-07-29T08:39:04;21.20;99.90
52869;DHT22;39100;53.480;6.158;2022-07-29T08:41:30;21.20;99.90
52869;DHT22;39100;53.480;6.158;2022-07-29T08:43:56;21.20;99.90
52869;DHT22;39100;53.480;6.158;2022-07-29T08:46:22;21.20;99.90
52869;DHT22;39100;53.480;6.158;2022-07-29T08:48:48;21.20;99.90
52869;DHT22;39100;53.480;6.158;2022-07-29T08:51:18;21.40;99.90
52869;DHT22;39100;53.480;6.158;2022-07-29T08:53:45;21.60;99.90
52869;DHT22;39100;53.480;6.158;2022-07-29T08:56:14;22.00;99.90
52869;DHT22;39100;53.480;6.158;2022-07-29T08:58:42;22.40;99.90
52869;DHT22;39100;53.480;6.158;2022-07-29T09:01:08;22.70;99.90
52869;DHT22;39100;53.480;6.158;2022-07-29T09:03:37;23.00;99.90
52869;DHT22;39100;53.480;6.158;2022-07-29T09:06:03;23.40;99.90
52869;DHT22;39100;53.480;6.158;2022-07-29T09:08:30;23.70;99.90
52869;DHT22;39100;53.480;6.158;2022-07-29T09:10:56;24.00;99.90
52869;DHT22;39100;53.480;6.158;2022-07-29T09:13:23;24.10;99.90
52869;DHT22;39100;53.480;6.158;2022-07-29T09:15:48;24.10;99.90
52869;DHT22;39100;53.480;6.158;2022-07-29T09:18:33;24.00;99.90
52869;DHT22;39100;53.480;6.158;2022-07-29T09:21:00;23.90;99.90
52869;DHT22;39100;53.480;6.158;2022-07-29T09:24:04;23.60;99.90
52869;DHT22;39100;53.480;6.158;2022-07-29T09:26:33;23.40;99.90
52869;DHT22;39100;53.480;6.158;2022-07-29T09:28:59;23.20;99.90
52869;DHT22;39100;53.480;6.158;2022-07-29T09:31:38;23.10;99.90
52869;DHT22;39100;53.480;6.158;2022-07-29T09:34:04;22.90;99.90
52869;DHT22;39100;53.480;6.158;2022-07-29T09:36:30;22.90;99.90
52869;DHT22;39100;53.480;6.158;2022-07-29T09:39:00;22.80;99.90
52869;DHT22;39100;53.480;6.158;2022-07-29T09:41:27;22.70;99.90
52869;DHT22;39100;53.480;6.158;2022-07-29T09:43:59;22.50;99.90
52869;DHT22;39100;53.480;6.158;2022-07-29T09:46:25;22.40;99.90
52869;DHT22;39100;53.480;6.158;2022-07-29T09:51:33;22.10;99.90
52869;DHT22;39100;53.480;6.158;2022-07-29T09:53:59;22.00;99.90
52869;DHT22;39100;53.480;6.158;2022-07-29T09:56:40;21.90;99.90
52869;DHT22;39100;53.480;6.158;2022-07-29T09:59:08;21.90;99.90
52869;DHT22;39100;53.480;6.158;2022-07-29T10:01:34;21.90;99.90
52869;DHT22;39100;53.480;6.158;2022-07-29T10:04:01;21.80;99.90
52869;DHT22;39100;53.480;6.158;2022-07-29T10:06:27;21.70;99.90
52869;DHT22;39100;53.480;6.158;2022-07-29T10:08:53;21.60;99.90
52869;DHT22;39100;53.480;6.158;2022-07-29T10:11:19;21.50;99.90
52869;DHT22;39100;53.480;6.158;2022-07-29T10:13:47;21.40;99.90
52869;DHT22;39100;53.480;6.158;2022-07-29T10:16:14;21.40;99.90
52869;DHT22;39100;53.480;6.158;2022-07-29T10:18:41;21.40;99.90
52869;DHT22;39100;53.480;6.158;2022-07-29T10:21:07;21.40;99.90
52869;DHT22;39100;53.480;6.158;2022-07-29T10:23:34;21.70;99.90
52869;DHT22;39100;53.480;6.158;2022-07-29T10:26:00;21.40;99.90
52869;DHT22;39100;53.480;6.158;2022-07-29T10:28:26;21.30;99.90
52869;DHT22;39100;53.480;6.158;2022-07-29T10:31:00;21.30;99.90
52869;DHT22;39100;53.480;6.158;2022-07-29T10:33:52;21.40;99.90
52869;DHT22;39100;53.480;6.158;2022-07-29T10:41:55;21.50;99.90
52869;DHT22;39100;53.480;6.158;2022-07-29T10:44:23;21.50;99.90
52869;DHT22;39100;53.480;6.158;2022-07-29T10:46:51;21.50;99.90
52869;DHT22;39100;53.480;6.158;2022-07-29T10:49:18;21.40;99.90
52869;DHT22;39100;53.480;6.158;2022-07-29T10:57:28;21.20;99.90
52869;DHT22;39100;53.480;6.158;2022-07-29T11:07:23;20.80;99.90
52869;DHT22;39100;53.480;6.158;2022-07-29T11:10:25;20.80;99.90
52869;DHT22;39100;53.480;6.158;2022-07-29T11:12:51;20.70;99.90
52869;DHT22;39100;53.480;6.158;2022-07-29T11:15:19;20.60;99.90
52869;DHT22;39100;53.480;6.158;2022-07-29T11:18:06;20.50;99.90
52869;DHT22;39100;53.480;6.158;2022-07-29T11:20:42;20.50;99.90
52869;DHT22;39100;53.480;6.158;2022-07-29T11:34:19;20.70;99.90
52869;DHT22;39100;53.480;6.158;2022-07-29T11:39:33;20.90;99.90
52869;DHT22;39100;53.480;6.158;2022-07-29T11:44:56;21.20;99.90
52869;DHT22;39100;53.480;6.158;2022-07-29T11:47:23;21.30;99.90
52869;DHT22;39100;53.480;6.158;2022-07-29T11:49:50;21.50;99.90
52869;DHT22;39100;53.480;6.158;2022-07-29T11:52:16;21.50;99.90
52869;DHT22;39100;53.480;6.158;2022-07-29T11:54:43;21.60;99.90
52869;DHT22;39100;53.480;6.158;2022-07-29T11:57:09;21.60;99.90
52869;DHT22;39100;53.480;6.158;2022-07-29T11:59:43;21.60;99.90
52869;DHT22;39100;53.480;6.158;2022-07-29T12:02:09;21.50;99.90
52869;DHT22;39100;53.480;6.158;2022-07-29T12:04:56;21.40;99.90
52869;DHT22;39100;53.480;6.158;2022-07-29T12:09:53;21.30;99.90
52869;DHT22;39100;53.480;6.158;2022-07-29T12:12:20;21.30;99.90
52869;DHT22;39100;53.480;6.158;2022-07-29T12:14:46;21.20;99.90
52869;DHT22;39100;53.480;6.158;2022-07-29T12:17:32;21.20;99.90
52869;DHT22;39100;53.480;6.158;2022-07-29T12:19:59;21.10;99.90
52869;DHT22;39100;53.480;6.158;2022-07-29T12:22:33;21.10;99.90
52869;DHT22;39100;53.480;6.158;2022-07-29T12:25:04;21.10;99.90
52869;DHT22;39100;53.480;6.158;2022-07-29T12:27:30;21.00;99.90
52869;DHT22;39100;53.480;6.158;2022-07-29T12:30:00;21.00;99.90
52869;DHT22;39100;53.480;6.158;2022-07-29T12:32:39;21.00;99.90
52869;DHT22;39100;53.480;6.158;2022-07-29T12:35:06;20.90;99.90
52869;DHT22;39100;53.480;6.158;2022-07-29T12:37:34;20.80;99.90
52869;DHT22;39100;53.480;6.158;2022-07-29T12:40:02;20.70;99.90
52869;DHT22;39100;53.480;6.158;2022-07-29T12:42:28;20.70;99.90
52869;DHT22;39100;53.480;6.158;2022-07-29T12:44:53;20.60;99.90
52869;DHT22;39100;53.480;6.158;2022-07-29T12:47:20;20.60;99.90
52869;DHT22;39100;53.480;6.158;2022-07-29T12:49:46;20.50;99.90
52869;DHT22;39100;53.480;6.158;2022-07-29T12:52:31;20.50;99.90
52869;DHT22;39100;53.480;6.158;2022-07-29T12:54:57;20.40;99.90
52869;DHT22;39100;53.480;6.158;2022-07-29T12:57:22;20.40;99.90
52869;DHT22;39100;53.480;6.158;2022-07-29T13:02:33;20.40;99.90
52869;DHT22;39100;53.480;6.158;2022-07-29T13:05:00;20.40;99.90
52869;DHT22;39100;53.480;6.158;2022-07-29T13:07:31;20.40;99.90
52869;DHT22;39100;53.480;6.158;2022-07-29T13:13:00;20.40;99.90
52869;DHT22;39100;53.480;6.158;2022-07-29T13:15:25;20.50;99.90
52869;DHT22;39100;53.480;6.158;2022-07-29T13:17:51;20.50;99.90
52869;DHT22;39100;53.480;6.158;2022-07-29T13:20:16;20.60;99.90
52869;DHT22;39100;53.480;6.158;2022-07-29T13:22:42;20.70;99.90
52869;DHT22;39100;53.480;6.158;2022-07-29T13:25:09;20.80;99.90
52869;DHT22;39100;53.480;6.158;2022-07-29T13:27:38;20.90;99.90
52869;DHT22;39100;53.480;6.158;2022-07-29T13:30:07;21.20;99.90
52869;DHT22;39100;53.480;6.158;2022-07-29T13:32:33;21.30;99.90
52869;DHT22;39100;53.480;6.158;2022-07-29T13:35:06;21.60;99.90
52869;DHT22;39100;53.480;6.158;2022-07-29T13:37:34;21.80;99.90
52869;DHT22;39100;53.480;6.158;2022-07-29T13:40:04;22.00;99.90
52869;DHT22;39100;53.480;6.158;2022-07-29T13:42:31;22.30;99.90
52869;DHT22;39100;53.480;6.158;2022-07-29T13:44:57;22.60;99.90
52869;DHT22;39100;53.480;6.158;2022-07-29T13:47:23;22.50;99.90
52869;DHT22;39100;53.480;6.158;2022-07-29T13:49:49;22.70;99.90
52869;DHT22;39100;53.480;6.158;2022-07-29T13:52:15;22.80;99.90
52869;DHT22;39100;53.480;6.158;2022-07-29T13:54:41;23.20;99.90
52869;DHT22;39100;53.480;6.158;2022-07-29T13:57:08;23.30;99.90
52869;DHT22;39100;53.480;6.158;2022-07-29T13:59:33;23.50;99.90
52869;DHT22;39100;53.480;6.158;2022-07-29T14:01:59;23.70;99.90
52869;DHT22;39100;53.480;6.158;2022-07-29T14:04:25;23.90;99.90
52869;DHT22;39100;53.480;6.158;2022-07-29T14:06:51;24.10;99.90
52869;DHT22;39100;53.480;6.158;2022-07-29T14:09:17;24.00;99.90
52869;DHT22;39100;53.480;6.158;2022-07-29T14:11:42;23.90;99.90
52869;DHT22;39100;53.480;6.158;2022-07-29T14:14:08;23.60;99.90
52869;DHT22;39100;53.480;6.158;2022-07-29T14:16:35;23.50;99.90
52869;DHT22;39100;53.480;6.158;2022-07-29T14:19:01;23.30;99.90
52869;DHT22;39100;53.480;6.158;2022-07-29T14:21:27;23.30;99.90
52869;DHT22;39100;53.480;6.158;2022-07-29T14:23:53;23.00;99.90
52869;DHT22;39100;53.480;6.158;2022-07-29T14:26:20;23.00;99.90
52869;DHT22;39100;53.480;6.158;2022-07-29T14:28:46;22.80;99.90
52869;DHT22;39100;53.480;6.158;2022-07-29T14:31:11;22.80;99.90
52869;DHT22;39100;53.480;6.158;2022-07-29T14:33:37;22.70;99.90
52869;DHT22;39100;53.480;6.158;2022-07-29T14:36:03;22.50;99.90
52869;DHT22;39100;53.480;6.158;2022-07-29T14:38:28;22.50;99.90
52869;DHT22;39100;53.480;6.158;2022-07-29T14:40:54;22.30;99.90
52869;DHT22;39100;53.480;6.158;2022-07-29T14:43:19;22.40;99.90
52869;DHT22;39100;53.480;6.158;2022-07-29T14:45:45;22.30;99.90
52869;DHT22;39100;53.480;6.158;2022-07-29T14:48:11;22.30;99.90
52869;DHT22;39100;53.480;6.158;2022-07-29T14:50:39;22.30;99.90
52869;DHT22;39100;53.480;6.158;2022-07-29T14:53:04;22.20;99.90
52869;DHT22;39100;53.480;6.158;2022-07-29T14:55:30;22.20;99.90
52869;DHT22;39100;53.480;6.158;2022-07-29T14:57:56;22.10;99.90
52869;DHT22;39100;53.480;6.158;2022-07-29T15:00:22;22.10;99.90
52869;DHT22;39100;53.480;6.158;2022-07-29T15:02:48;22.10;99.90
52869;DHT22;39100;53.480;6.158;2022-07-29T15:05:13;22.10;99.90
52869;DHT22;39100;53.480;6.158;2022-07-29T15:07:39;22.10;99.90
52869;DHT22;39100;53.480;6.158;2022-07-29T15:10:05;22.00;99.90
52869;DHT22;39100;53.480;6.158;2022-07-29T15:12:31;22.00;99.90
52869;DHT22;39100;53.480;6.158;2022-07-29T15:14:57;22.00;99.90
52869;DHT22;39100;53.480;6.158;2022-07-29T15:17:23;22.00;99.90
52869;DHT22;39100;53.480;6.158;2022-07-29T15:19:48;22.00;99.90
52869;DHT22;39100;53.480;6.158;2022-07-29T15:22:14;22.00;99.90
52869;DHT22;39100;53.480;6.158;2022-07-29T15:24:40;22.00;99.90
52869;DHT22;39100;53.480;6.158;2022-07-29T15:27:05;22.00;99.90
52869;DHT22;39100;53.480;6.158;2022-07-29T15:29:31;22.10;99.90
52869;DHT22;39100;53.480;6.158;2022-07-29T15:31:56;22.10;99.90
52869;DHT22;39100;53.480;6.158;2022-07-29T15:34:22;22.20;99.90
52869;DHT22;39100;53.480;6.158;2022-07-29T15:36:51;22.10;99.90
52869;DHT22;39100;53.480;6.158;2022-07-29T15:39:17;22.10;99.90
52869;DHT22;39100;53.480;6.158;2022-07-29T15:41:42;22.10;99.90
52869;DHT22;39100;53.480;6.158;2022-07-29T15:44:08;22.10;99.90
52869;DHT22;39100;53.480;6.158;2022-07-29T15:46:34;22.10;99.90
52869;DHT22;39100;53.480;6.158;2022-07-29T15:49:18;22.10;99.90
52869;DHT22;39100;53.480;6.158;2022-07-29T15:51:43;22.10;99.90
52869;DHT22;39100;53.480;6.158;2022-07-29T15:54:09;22.10;99.90
52869;DHT22;39100;53.480;6.158;2022-07-29T15:56:35;22.10;99.90
52869;DHT22;39100;53.480;6.158;2022-07-29T15:59:00;22.10;99.90
52869;DHT22;39100;53.480;6.158;2022-07-29T16:01:26;22.10;99.90
52869;DHT22;39100;53.480;6.158;2022-07-29T16:03:52;22.10;99.90
52869;DHT22;39100;53.480;6.158;2022-07-29T16:06:18;22.00;99.90
52869;DHT22;39100;53.480;6.158;2022-07-29T16:08:44;22.00;99.90
52869;DHT22;39100;53.480;6.158;2022-07-29T16:11:09;22.00;99.90
52869;DHT22;39100;53.480;6.158;2022-07-29T16:13:35;22.00;99.90
52869;DHT22;39100;53.480;6.158;2022-07-29T16:16:01;22.00;99.90
52869;DHT22;39100;53.480;6.158;2022-07-29T16:18:26;22.00;99.90
52869;DHT22;39100;53.480;6.158;2022-07-29T16:20:52;22.00;99.90
52869;DHT22;39100;53.480;6.158;2022-07-29T16:23:17;22.00;99.90
52869;DHT22;39100;53.480;6.158;2022-07-29T16:25:43;22.00;99.90
52869;DHT22;39100;53.480;6.158;2022-07-29T16:28:09;22.00;99.90
52869;DHT22;39100;53.480;6.158;2022-07-29T16:30:35;22.10;99.90